createdAt,value
2018-09-12T00:01:37.429Z,4.27
2018-09-12T00:04:04.744Z,3.93
2018-09-12T00:06:32.038Z,4.30
2018-09-12T00:08:59.292Z,4.17
2018-09-12T00:11:26.501Z,4.63
2018-09-12T00:13:53.795Z,4.20
2018-09-12T00:16:21.089Z,4.60
2018-09-12T00:18:48.335Z,4.60
2018-09-12T00:21:15.655Z,4.73
2018-09-12T00:23:42.872Z,5.07
2018-09-12T00:26:10.121Z,4.57
2018-09-12T00:28:37.583Z,4.70
2018-09-12T00:31:04.861Z,4.20
2018-09-12T00:33:32.118Z,4.17
2018-09-12T00:35:59.414Z,5.10
2018-09-12T00:38:26.605Z,4.27
2018-09-12T00:40:53.872Z,4.70
2018-09-12T00:43:21.091Z,4.27
2018-09-12T00:45:48.393Z,4.50
2018-09-12T00:48:15.617Z,6.43
2018-09-12T00:50:42.888Z,5.03
2018-09-12T00:53:10.171Z,4.80
2018-09-12T00:55:37.498Z,5.10
2018-09-12T00:58:04.820Z,4.47
2018-09-12T01:00:32.172Z,4.80
2018-09-12T01:02:59.428Z,4.97
2018-09-12T01:05:26.620Z,5.47
2018-09-12T01:07:54.097Z,4.80
2018-09-12T01:10:21.389Z,4.80
2018-09-12T01:12:48.620Z,4.80
2018-09-12T01:15:15.869Z,5.10
2018-09-12T01:17:43.098Z,5.10
2018-09-12T01:20:10.343Z,5.40
2018-09-12T01:22:37.597Z,4.93
2018-09-12T01:25:04.832Z,5.10
2018-09-12T01:27:32.086Z,5.30
2018-09-12T01:29:59.285Z,5.27
2018-09-12T01:32:26.629Z,5.27
2018-09-12T01:34:53.856Z,4.90
2018-09-12T01:37:21.069Z,5.13
2018-09-12T01:39:48.293Z,5.03
2018-09-12T01:42:15.651Z,5.23
2018-09-12T01:44:42.854Z,4.67
2018-09-12T01:47:10.109Z,5.33
2018-09-12T01:49:37.281Z,5.10
2018-09-12T01:54:37.872Z,5.23
2018-09-12T01:57:05.133Z,5.00
2018-09-12T01:59:32.372Z,5.03
2018-09-12T02:01:59.605Z,5.47
2018-09-12T02:04:26.850Z,5.17
2018-09-12T02:06:54.142Z,5.80
2018-09-12T02:09:21.433Z,5.07
2018-09-12T02:11:48.735Z,5.17
2018-09-12T02:14:15.969Z,5.00
2018-09-12T02:16:43.193Z,5.17
2018-09-12T02:19:10.464Z,5.40
2018-09-12T02:21:37.705Z,5.43
2018-09-12T02:24:04.767Z,5.37
2018-09-12T02:26:32.053Z,5.00
2018-09-12T02:28:59.322Z,5.77
2018-09-12T02:31:26.561Z,5.03
2018-09-12T02:33:53.744Z,5.03
2018-09-12T02:36:26.959Z,5.17
2018-09-12T02:38:54.559Z,4.80
2018-09-12T02:41:21.785Z,5.33
2018-09-12T02:43:49.006Z,5.27
2018-09-12T02:46:16.256Z,4.67
2018-09-12T02:48:43.458Z,5.47
2018-09-12T02:51:10.716Z,5.83
2018-09-12T02:53:37.980Z,5.17
2018-09-12T02:56:05.234Z,4.80
2018-09-12T02:58:32.472Z,4.93
2018-09-12T03:00:59.688Z,4.83
2018-09-12T03:03:26.962Z,5.63
2018-09-12T03:05:54.212Z,5.20
2018-09-12T03:08:21.413Z,5.07
2018-09-12T03:10:48.641Z,5.07
2018-09-12T03:13:16.079Z,5.37
2018-09-12T03:15:43.327Z,5.57
2018-09-12T03:18:10.552Z,5.90
2018-09-12T03:20:37.896Z,5.50
2018-09-12T03:23:05.161Z,5.03
2018-09-12T03:25:32.360Z,5.30
2018-09-12T03:27:59.568Z,5.70
2018-09-12T03:30:26.769Z,5.17
2018-09-12T03:32:54.003Z,5.03
2018-09-12T03:35:21.240Z,5.13
2018-09-12T03:37:48.464Z,4.77
2018-09-12T03:40:15.693Z,5.20
2018-09-12T03:42:42.938Z,5.30
2018-09-12T03:45:10.176Z,5.80
2018-09-12T03:47:37.412Z,5.47
2018-09-12T03:50:04.749Z,4.77
2018-09-12T03:52:32.014Z,6.10
2018-09-12T03:54:59.222Z,5.60
2018-09-12T03:57:26.445Z,5.60
2018-09-12T03:59:53.653Z,4.73
2018-09-12T04:02:20.887Z,5.27
2018-09-12T04:04:48.085Z,5.53
2018-09-12T04:07:15.385Z,5.40
2018-09-12T04:09:42.643Z,5.50
2018-09-12T04:12:09.886Z,5.53
2018-09-12T04:14:37.104Z,4.90
2018-09-12T04:17:04.294Z,5.30
2018-09-12T04:19:31.560Z,4.97
2018-09-12T04:21:58.782Z,5.03
2018-09-12T04:24:26.239Z,4.97
2018-09-12T04:26:53.292Z,5.23
2018-09-12T04:29:20.549Z,5.23
2018-09-12T04:31:47.796Z,5.20
2018-09-12T04:34:15.074Z,5.60
2018-09-12T04:36:42.269Z,5.93
2018-09-12T04:39:10.809Z,5.43
2018-09-12T04:41:38.040Z,5.77
2018-09-12T04:44:05.288Z,5.50
2018-09-12T04:46:32.504Z,6.03
2018-09-12T04:48:59.787Z,5.63
2018-09-12T04:51:27.009Z,5.50
2018-09-12T04:53:54.299Z,5.70
2018-09-12T04:56:21.534Z,5.47
2018-09-12T04:58:48.791Z,6.37
2018-09-12T05:01:16.017Z,6.10
2018-09-12T05:03:43.267Z,5.27
2018-09-12T05:06:13.650Z,5.60
2018-09-12T05:08:40.946Z,6.07
2018-09-12T05:11:08.164Z,5.23
2018-09-12T05:13:35.395Z,6.20
2018-09-12T05:16:02.705Z,5.77
2018-09-12T05:18:29.927Z,5.53
2018-09-12T05:20:57.048Z,5.30
2018-09-12T05:23:24.567Z,5.10
2018-09-12T05:25:51.785Z,5.33
2018-09-12T05:28:19.105Z,4.53
2018-09-12T05:30:46.292Z,4.77
2018-09-12T05:33:14.162Z,4.87
2018-09-12T05:35:41.705Z,4.70
2018-09-12T05:38:09.258Z,4.67
2018-09-12T05:40:36.532Z,4.97
2018-09-12T05:43:03.811Z,4.63
2018-09-12T05:45:31.005Z,5.13
2018-09-12T05:47:58.233Z,5.00
2018-09-12T05:50:25.481Z,5.13
2018-09-12T05:52:52.754Z,5.53
2018-09-12T05:55:20.026Z,5.47
2018-09-12T05:57:47.328Z,5.50
2018-09-12T06:00:14.580Z,4.90
2018-09-12T06:02:41.761Z,5.10
2018-09-12T06:05:08.957Z,6.43
2018-09-12T06:07:36.233Z,5.43
2018-09-12T06:10:03.496Z,4.97
2018-09-12T06:12:30.748Z,5.63
2018-09-12T06:14:58.116Z,5.37
2018-09-12T06:17:25.295Z,5.37
2018-09-12T06:19:52.605Z,5.53
2018-09-12T06:22:19.847Z,5.17
2018-09-12T06:24:47.100Z,5.23
2018-09-12T06:27:14.285Z,5.73
2018-09-12T06:29:41.545Z,5.97
2018-09-12T06:32:08.723Z,6.20
2018-09-12T06:34:35.977Z,6.23
2018-09-12T06:37:03.208Z,5.90
2018-09-12T06:39:30.535Z,5.93
2018-09-12T06:41:57.766Z,6.13
2018-09-12T06:44:25.032Z,6.10
2018-09-12T06:46:52.253Z,6.97
2018-09-12T06:49:19.450Z,6.10
2018-09-12T06:51:46.694Z,7.30
2018-09-12T06:54:13.984Z,6.77
2018-09-12T06:56:41.204Z,7.00
2018-09-12T06:59:08.428Z,6.73
2018-09-12T07:01:35.634Z,6.80
2018-09-12T07:04:03.137Z,6.10
2018-09-12T07:06:30.332Z,6.67
2018-09-12T07:08:57.586Z,6.83
2018-09-12T07:11:24.857Z,6.63
2018-09-12T07:13:52.125Z,7.23
2018-09-12T07:16:19.373Z,7.17
2018-09-12T07:18:46.661Z,6.20
2018-09-12T07:21:13.836Z,6.28
2018-09-12T07:23:41.168Z,6.35
2018-09-12T07:26:08.412Z,6.35
2018-09-12T07:28:35.718Z,5.90
2018-09-12T07:31:03.024Z,6.05
2018-09-12T07:33:30.279Z,6.53
2018-09-12T07:35:57.520Z,5.97
2018-09-12T07:38:24.816Z,5.65
2018-09-12T07:40:52.068Z,6.17
2018-09-12T07:43:19.253Z,6.87
2018-09-12T07:45:46.496Z,6.90
2018-09-12T07:48:13.752Z,6.40
2018-09-12T07:50:45.565Z,5.58
2018-09-12T07:53:12.841Z,5.67
2018-09-12T07:55:40.123Z,5.30
2018-09-12T07:58:07.416Z,5.28
2018-09-12T08:00:34.712Z,5.17
2018-09-12T08:03:01.994Z,5.58
2018-09-12T08:05:29.325Z,5.22
2018-09-12T08:07:56.636Z,5.72
2018-09-12T08:10:24.083Z,5.30
2018-09-12T08:12:51.442Z,5.12
2018-09-12T08:15:18.773Z,5.67
2018-09-12T08:17:46.137Z,5.78
2018-09-12T08:20:13.431Z,5.30
2018-09-12T08:22:40.853Z,4.85
2018-09-12T08:25:08.373Z,5.65
2018-09-12T08:27:35.686Z,5.17
2018-09-12T08:30:03.164Z,5.15
2018-09-12T08:32:30.425Z,5.75
2018-09-12T08:34:57.793Z,5.28
2018-09-12T08:37:25.192Z,5.25
2018-09-12T08:39:52.458Z,5.33
2018-09-12T08:42:19.759Z,5.47
2018-09-12T08:44:47.028Z,5.00
2018-09-12T08:47:14.271Z,5.03
2018-09-12T08:49:41.606Z,4.60
2018-09-12T08:52:08.841Z,4.95
2018-09-12T08:54:36.979Z,4.30
2018-09-12T08:57:04.281Z,4.30
2018-09-12T08:59:31.988Z,4.22
2018-09-12T09:01:59.285Z,3.95
2018-09-12T09:04:26.574Z,4.53
2018-09-12T09:06:53.867Z,4.53
2018-09-12T09:09:21.156Z,4.28
2018-09-12T09:11:48.411Z,4.47
2018-09-12T09:14:15.767Z,4.30
2018-09-12T09:16:43.055Z,3.52
2018-09-12T09:19:10.236Z,4.12
2018-09-12T09:21:37.464Z,4.40
2018-09-12T09:24:04.821Z,3.45
2018-09-12T09:26:32.072Z,3.72
2018-09-12T09:28:59.333Z,3.33
2018-09-12T09:31:26.617Z,3.85
2018-09-12T09:33:53.972Z,4.37
2018-09-12T09:36:21.136Z,3.60
2018-09-12T09:38:48.373Z,3.67
2018-09-12T09:41:15.668Z,3.87
2018-09-12T09:43:42.980Z,3.90
2018-09-12T09:46:10.257Z,3.35
2018-09-12T09:48:37.512Z,3.65
2018-09-12T09:51:04.837Z,3.75
2018-09-12T09:53:32.323Z,3.47
2018-09-12T09:55:59.696Z,3.40
2018-09-12T09:58:27.012Z,3.60
2018-09-12T10:00:59.954Z,3.30
2018-09-12T10:03:32.880Z,4.00
2018-09-12T10:06:05.986Z,3.47
2018-09-12T10:08:38.784Z,3.40
2018-09-12T10:11:06.008Z,3.40
2018-09-12T10:13:33.224Z,3.37
2018-09-12T10:16:00.561Z,3.45
2018-09-12T10:18:27.772Z,3.47
2018-09-12T10:20:55.978Z,3.40
2018-09-12T10:23:23.867Z,3.72
2018-09-12T10:25:51.589Z,3.50
2018-09-12T10:28:18.920Z,3.70
2018-09-12T10:30:46.237Z,3.00
2018-09-12T10:33:13.476Z,2.83
2018-09-12T10:35:40.722Z,2.65
2018-09-12T10:38:07.944Z,2.90
2018-09-12T10:40:35.179Z,3.27
2018-09-12T10:43:02.418Z,2.87
2018-09-12T10:45:29.703Z,2.67
2018-09-12T10:47:56.938Z,2.90
2018-09-12T10:50:24.198Z,2.80
2018-09-12T10:52:51.524Z,3.02
2018-09-12T10:55:18.766Z,3.50
2018-09-12T10:57:46.042Z,2.52
2018-09-12T11:00:13.320Z,2.87
2018-09-12T11:02:40.557Z,3.08
2018-09-12T11:05:07.784Z,2.98
2018-09-12T11:07:35.020Z,2.90
2018-09-12T11:10:02.284Z,2.70
2018-09-12T11:12:29.569Z,3.30
2018-09-12T11:14:56.792Z,3.12
2018-09-12T11:17:24.036Z,2.90
2018-09-12T11:19:51.287Z,2.92
2018-09-12T11:22:18.541Z,3.00
2018-09-12T11:24:46.030Z,2.77
2018-09-12T11:27:13.280Z,2.90
2018-09-12T11:29:40.529Z,3.00
2018-09-12T11:32:07.768Z,2.70
2018-09-12T11:34:34.992Z,2.70
2018-09-12T11:37:02.241Z,3.10
2018-09-12T11:39:29.495Z,3.10
2018-09-12T11:41:56.770Z,2.83
2018-09-12T11:44:24.006Z,3.10
2018-09-12T11:46:51.195Z,3.25
2018-09-12T11:49:18.408Z,2.95
2018-09-12T11:51:45.607Z,2.87
2018-09-12T11:54:13.233Z,3.10
2018-09-12T11:56:40.507Z,2.90
2018-09-12T11:59:07.750Z,2.87
2018-09-12T12:01:35.026Z,3.10
2018-09-12T12:04:02.333Z,2.47
2018-09-12T12:06:29.574Z,3.15
2018-09-12T12:08:56.808Z,3.20
2018-09-12T12:11:24.086Z,3.00
2018-09-12T12:13:51.395Z,3.00
2018-09-12T12:16:18.636Z,3.30
2018-09-12T12:18:45.912Z,2.80
2018-09-12T12:21:13.150Z,2.90
2018-09-12T12:23:40.713Z,2.77
2018-09-12T12:26:07.965Z,3.00
2018-09-12T12:28:35.204Z,2.70
2018-09-12T12:31:02.445Z,2.77
2018-09-12T12:33:29.717Z,2.90
2018-09-12T12:35:56.970Z,2.80
2018-09-12T12:38:24.253Z,3.22
2018-09-12T12:40:51.455Z,3.05
2018-09-12T12:43:18.681Z,3.00
2018-09-12T12:45:45.913Z,3.00
2018-09-12T12:48:13.184Z,3.12
2018-09-12T12:50:40.593Z,3.22
2018-09-12T12:53:07.961Z,2.72
2018-09-12T12:55:35.194Z,3.12
2018-09-12T12:58:02.481Z,3.17
2018-09-12T13:00:29.718Z,2.80
2018-09-12T13:02:56.943Z,2.87
2018-09-12T13:05:24.279Z,2.92
2018-09-12T13:07:51.642Z,3.15
2018-09-12T13:10:21.609Z,3.10
2018-09-12T13:12:48.824Z,2.77
2018-09-12T13:15:16.068Z,2.83
2018-09-12T13:17:43.310Z,3.10
2018-09-12T13:20:10.599Z,3.10
2018-09-12T13:22:37.857Z,3.02
2018-09-12T13:25:05.216Z,3.12
2018-09-12T13:27:32.796Z,2.83
2018-09-12T13:30:00.022Z,3.02
2018-09-12T13:32:27.344Z,3.00
2018-09-12T13:34:54.597Z,2.98
2018-09-12T13:37:21.820Z,3.12
2018-09-12T13:39:49.048Z,3.02
2018-09-12T13:42:16.508Z,3.33
2018-09-12T13:44:43.730Z,3.22
2018-09-12T13:47:11.037Z,2.80
2018-09-12T13:49:38.386Z,2.77
2018-09-12T13:52:05.740Z,3.12
2018-09-12T13:54:33.005Z,2.85
2018-09-12T13:57:00.217Z,3.40
2018-09-12T13:59:27.759Z,2.85
2018-09-12T14:01:55.057Z,2.90
2018-09-12T14:04:22.315Z,2.85
2018-09-12T14:06:49.590Z,2.80
2018-09-12T14:09:16.916Z,3.10
2018-09-12T14:11:44.151Z,3.25
2018-09-12T14:14:11.496Z,3.05
2018-09-12T14:16:38.854Z,2.70
2018-09-12T14:19:06.105Z,2.52
2018-09-12T14:21:33.327Z,2.98
2018-09-12T14:24:00.580Z,3.22
2018-09-12T14:26:27.812Z,2.90
2018-09-12T14:28:55.068Z,2.72
2018-09-12T14:31:22.252Z,2.80
2018-09-12T14:33:49.458Z,2.62
2018-09-12T14:36:16.736Z,2.72
2018-09-12T14:38:43.993Z,2.70
2018-09-12T14:41:11.306Z,2.80
2018-09-12T14:43:38.604Z,2.80
2018-09-12T14:46:05.997Z,3.02
2018-09-12T14:48:33.243Z,2.92
2018-09-12T14:51:00.553Z,2.52
2018-09-12T14:53:27.846Z,3.15
2018-09-12T14:55:55.073Z,2.60
2018-09-12T14:58:22.343Z,3.00
2018-09-12T15:00:52.763Z,3.30
2018-09-12T15:03:20.451Z,2.55
2018-09-12T15:05:47.940Z,2.87
2018-09-12T15:08:15.306Z,2.85
2018-09-12T15:10:42.609Z,2.75
2018-09-12T15:13:09.996Z,2.90
2018-09-12T15:15:37.485Z,2.80
2018-09-12T15:18:04.754Z,2.85
2018-09-12T15:20:32.201Z,3.37
2018-09-12T15:22:59.450Z,2.87
2018-09-12T15:25:26.679Z,3.45
2018-09-12T15:27:54.076Z,2.83
2018-09-12T15:30:21.266Z,2.98
2018-09-12T15:32:48.500Z,2.72
2018-09-12T15:35:15.736Z,3.20
2018-09-12T15:37:42.944Z,3.00
2018-09-12T15:40:10.277Z,3.40
2018-09-12T15:42:37.580Z,3.50
2018-09-12T15:45:04.826Z,3.30
2018-09-12T15:47:32.203Z,3.08
2018-09-12T15:49:59.411Z,3.00
2018-09-12T15:52:26.752Z,3.35
2018-09-12T15:54:54.042Z,3.60
2018-09-12T15:57:21.286Z,3.00
2018-09-12T15:59:48.603Z,2.80
2018-09-12T16:02:15.831Z,3.45
2018-09-12T16:04:43.133Z,3.17
2018-09-12T16:07:10.374Z,3.05
2018-09-12T16:09:37.738Z,3.30
2018-09-12T16:12:05.235Z,3.42
2018-09-12T16:14:32.501Z,3.50
2018-09-12T16:16:59.891Z,3.55
2018-09-12T16:19:27.155Z,3.30
2018-09-12T16:21:54.423Z,3.08
2018-09-12T16:24:21.723Z,3.15
2018-09-12T16:26:49.350Z,3.12
2018-09-12T16:29:16.605Z,3.67
2018-09-12T16:31:43.830Z,3.27
2018-09-12T16:34:11.098Z,3.52
2018-09-12T16:36:38.771Z,3.85
2018-09-12T16:39:07.861Z,3.05
2018-09-12T16:41:35.301Z,4.03
2018-09-12T16:44:02.639Z,3.05
2018-09-12T16:46:29.907Z,3.70
2018-09-12T16:48:57.170Z,3.70
2018-09-12T16:51:24.452Z,3.52
2018-09-12T16:53:51.746Z,3.60
2018-09-12T16:56:19.024Z,3.52
2018-09-12T16:58:46.265Z,4.00
2018-09-12T17:01:13.723Z,3.70
2018-09-12T17:03:40.987Z,3.33
2018-09-12T17:06:08.261Z,3.27
2018-09-12T17:08:35.505Z,3.20
2018-09-12T17:11:02.873Z,2.92
2018-09-12T17:13:30.105Z,3.70
2018-09-12T17:15:57.429Z,5.97
2018-09-12T17:18:24.659Z,4.53
2018-09-12T17:20:51.938Z,3.72
2018-09-12T17:23:19.170Z,4.72
2018-09-12T17:25:46.516Z,3.83
2018-09-12T17:28:14.503Z,4.20
2018-09-12T17:30:41.759Z,3.37
2018-09-12T17:33:08.997Z,6.65
2018-09-12T17:35:36.519Z,4.30
2018-09-12T17:38:03.761Z,3.85
2018-09-12T17:40:31.003Z,3.30
2018-09-12T17:42:58.324Z,3.83
2018-09-12T17:45:25.552Z,3.98
2018-09-12T17:47:52.864Z,5.28
2018-09-12T17:50:20.269Z,5.67
2018-09-12T17:52:47.565Z,4.45
2018-09-12T17:55:14.841Z,3.58
2018-09-12T17:57:42.970Z,5.33
2018-09-12T18:00:10.216Z,3.50
2018-09-12T18:02:37.431Z,3.95
2018-09-12T18:05:04.800Z,3.77
2018-09-12T18:07:32.008Z,5.42
2018-09-12T18:09:59.258Z,4.30
2018-09-12T18:12:26.568Z,4.35
2018-09-12T18:14:53.964Z,3.67
2018-09-12T18:17:21.206Z,4.58
2018-09-12T18:19:48.868Z,3.70
2018-09-12T18:22:16.132Z,4.50
2018-09-12T18:24:43.504Z,3.80
2018-09-12T18:27:10.860Z,3.80
2018-09-12T18:29:38.085Z,4.17
2018-09-12T18:32:05.398Z,3.80
2018-09-12T18:34:32.624Z,3.65
2018-09-12T18:37:00.068Z,3.90
2018-09-12T18:39:27.344Z,4.17
2018-09-12T18:41:54.603Z,3.70
2018-09-12T18:44:21.882Z,4.30
2018-09-12T18:46:49.137Z,4.80
2018-09-12T18:49:16.348Z,4.95
2018-09-12T18:51:43.622Z,4.20
2018-09-12T18:54:10.852Z,4.50
2018-09-12T18:56:38.120Z,5.05
2018-09-12T18:59:05.368Z,4.62
2018-09-12T19:01:32.591Z,4.50
2018-09-12T19:03:59.868Z,4.50
2018-09-12T19:06:27.129Z,4.22
2018-09-12T19:08:54.402Z,4.53
2018-09-12T19:11:21.674Z,4.10
2018-09-12T19:13:48.880Z,4.08
2018-09-12T19:16:16.172Z,4.45
2018-09-12T19:18:43.665Z,4.30
2018-09-12T19:21:10.989Z,4.17
2018-09-12T19:23:38.233Z,3.92
2018-09-12T19:26:05.533Z,4.08
2018-09-12T19:28:32.811Z,3.83
2018-09-12T19:31:00.044Z,4.08
2018-09-12T19:33:27.397Z,4.30
2018-09-12T19:35:54.700Z,4.58
2018-09-12T19:38:21.924Z,4.05
2018-09-12T19:40:49.129Z,4.65
2018-09-12T19:43:16.324Z,4.67
2018-09-12T19:45:43.590Z,4.12
2018-09-12T19:48:10.966Z,4.12
2018-09-12T19:50:38.212Z,4.55
2018-09-12T19:53:05.522Z,4.12
2018-09-12T19:55:32.743Z,4.47
2018-09-12T19:58:00.254Z,4.62
2018-09-12T20:00:27.659Z,5.58
2018-09-12T20:02:54.864Z,4.62
2018-09-12T20:05:22.124Z,4.53
2018-09-12T20:07:49.489Z,4.55
2018-09-12T20:10:16.744Z,4.37
2018-09-12T20:12:43.991Z,4.28
2018-09-12T20:15:11.244Z,4.92
2018-09-12T20:17:38.509Z,5.10
2018-09-12T20:20:05.688Z,5.05
2018-09-12T20:22:33.178Z,4.85
2018-09-12T20:25:00.436Z,4.70
2018-09-12T20:27:27.736Z,5.08
2018-09-12T20:29:55.088Z,5.40
2018-09-12T20:32:22.311Z,5.40
2018-09-12T20:34:49.567Z,4.80
2018-09-12T20:37:16.912Z,5.75
2018-09-12T20:39:44.248Z,4.75
2018-09-12T20:42:11.453Z,5.20
2018-09-12T20:44:39.080Z,5.55
2018-09-12T20:47:06.418Z,5.55
2018-09-12T20:49:33.649Z,5.45
2018-09-12T20:52:00.958Z,5.25
2018-09-12T20:54:28.200Z,5.83
2018-09-12T20:56:55.480Z,5.47
2018-09-12T20:59:22.782Z,6.03
2018-09-12T21:01:49.959Z,6.03
2018-09-12T21:04:17.258Z,5.60
2018-09-12T21:06:44.521Z,5.70
2018-09-12T21:09:12.816Z,5.50
2018-09-12T21:11:40.671Z,5.30
2018-09-12T21:14:08.452Z,5.55
2018-09-12T21:16:36.026Z,5.62
2018-09-12T21:19:03.466Z,5.40
2018-09-12T21:21:30.776Z,6.00
2018-09-12T21:23:58.123Z,5.40
2018-09-12T21:26:25.844Z,6.00
2018-09-12T21:28:53.116Z,5.87
2018-09-12T21:31:20.380Z,6.45
2018-09-12T21:33:47.628Z,6.17
2018-09-12T21:36:14.885Z,5.55
2018-09-12T21:38:42.167Z,5.78
2018-09-12T21:41:09.573Z,5.37
2018-09-12T21:43:36.826Z,5.77
2018-09-12T21:46:04.089Z,5.47
2018-09-12T21:48:31.405Z,5.77
2018-09-12T21:50:58.792Z,5.92
2018-09-12T21:53:26.033Z,6.17
2018-09-12T21:55:53.276Z,6.47
2018-09-12T21:58:20.681Z,8.03
2018-09-12T22:00:48.003Z,7.15
2018-09-12T22:03:15.292Z,7.12
2018-09-12T22:05:42.604Z,5.90
2018-09-12T22:08:10.119Z,5.70
2018-09-12T22:10:37.324Z,6.05
2018-09-12T22:13:04.574Z,6.50
2018-09-12T22:15:31.769Z,6.23
2018-09-12T22:17:59.073Z,5.83
2018-09-12T22:20:26.313Z,6.30
2018-09-12T22:22:53.540Z,5.75
2018-09-12T22:25:20.773Z,5.47
2018-09-12T22:27:48.032Z,6.00
2018-09-12T22:30:15.257Z,5.65
2018-09-12T22:32:42.457Z,6.07
2018-09-12T22:35:09.698Z,6.58
2018-09-12T22:37:36.973Z,5.97
2018-09-12T22:40:04.266Z,6.07
2018-09-12T22:42:31.967Z,6.37
2018-09-12T22:44:59.227Z,6.07
2018-09-12T22:47:26.556Z,6.23
2018-09-12T22:49:53.913Z,5.93
2018-09-12T22:52:21.169Z,6.85
2018-09-12T22:54:48.364Z,6.27
2018-09-12T22:57:15.658Z,6.97
2018-09-12T22:59:42.945Z,5.97
2018-09-12T23:02:10.236Z,6.20
2018-09-12T23:04:37.537Z,6.05
2018-09-12T23:07:04.789Z,6.30
2018-09-12T23:09:32.044Z,6.12
2018-09-12T23:11:59.313Z,6.03
2018-09-12T23:14:26.530Z,6.22
2018-09-12T23:16:53.815Z,6.63
2018-09-12T23:19:21.091Z,5.57
2018-09-12T23:21:48.349Z,6.30
2018-09-12T23:24:15.568Z,5.62
2018-09-12T23:26:42.848Z,6.10
2018-09-12T23:29:10.080Z,6.55
2018-09-12T23:31:37.364Z,6.12
2018-09-12T23:34:04.700Z,5.62
2018-09-12T23:36:32.004Z,5.95
2018-09-12T23:38:59.253Z,6.47
2018-09-12T23:41:26.508Z,5.95
2018-09-12T23:43:53.762Z,5.95
2018-09-12T23:46:20.945Z,6.65
2018-09-12T23:48:48.192Z,7.27
2018-09-12T23:51:15.444Z,7.17
2018-09-12T23:53:42.701Z,7.80
2018-09-12T23:56:09.982Z,9.50
2018-09-12T23:58:37.240Z,9.20
